Time;durP1;ratioP1;P1;durP2;ratioP2;P2;SDS_P1;SDS_P2;PMS_P1;PMS_P2;Temp;Humidity;BMP_temperature;BMP_pressure;BME280_temperature;BME280_humidity;BME280_pressure;Samples;Min_cycle;Max_cycle;Signal;HPM_P1;HPM_P2
2022/12/24 00:01:15;;;;;;;4.70;1.70;;;16.40;60.80;;;;;;4992927;28;20195;-57
2022/12/24 00:03:41;;;;;;;2.67;1.73;;;16.60;60.50;;;;;;4992545;28;20706;-58
2022/12/24 00:06:14;;;;;;;6.50;1.53;;;16.60;60.00;;;;;;4993077;28;20274;-57
2022/12/24 00:08:40;;;;;;;4.57;1.70;;;16.40;59.80;;;;;;4992902;28;20241;-58
2022/12/24 00:11:06;;;;;;;3.10;1.50;;;16.40;60.20;;;;;;4992667;28;20937;-57
2022/12/24 00:13:31;;;;;;;4.63;1.93;;;16.30;60.00;;;;;;4992242;28;20612;-58
2022/12/24 00:15:57;;;;;;;5.30;2.23;;;16.40;60.20;;;;;;4990864;28;20217;-58
2022/12/24 00:18:23;;;;;;;1.73;1.40;;;16.30;60.00;;;;;;4992770;28;20322;-57
2022/12/24 00:20:49;;;;;;;3.43;1.40;;;16.20;60.30;;;;;;4992672;28;20264;-58
2022/12/24 00:23:16;;;;;;;2.77;1.50;;;16.10;60.20;;;;;;4992062;28;20222;-57
2022/12/24 00:25:42;;;;;;;3.37;1.30;;;16.20;60.30;;;;;;4992647;28;20921;-57
2022/12/24 00:28:07;;;;;;;6.40;2.70;;;16.30;60.30;;;;;;4992620;28;20437;-58
2022/12/24 00:30:33;;;;;;;2.90;1.40;;;16.10;61.20;;;;;;4992562;28;20418;-58
2022/12/24 00:32:59;;;;;;;3.83;1.67;;;16.00;60.20;;;;;;4992002;28;20220;-58
2022/12/24 00:35:25;;;;;;;4.80;1.80;;;16.10;60.90;;;;;;4992476;28;20313;-58
2022/12/24 00:37:50;;;;;;;3.70;1.40;;;16.10;60.30;;;;;;4992508;28;20187;-57
2022/12/24 00:40:17;;;;;;;2.63;1.40;;;15.90;60.30;;;;;;4992712;28;20597;-57
2022/12/24 00:42:42;;;;;;;2.47;1.23;;;15.80;60.80;;;;;;4990238;28;20223;-57
2022/12/24 00:45:09;;;;;;;5.13;1.70;;;15.70;61.30;;;;;;4992400;28;21027;-57
2022/12/24 00:47:35;;;;;;;7.60;1.67;;;15.80;61.20;;;;;;4992050;28;20610;-58
2022/12/24 00:50:01;;;;;;;6.47;1.70;;;15.50;60.90;;;;;;4992243;28;20429;-58
2022/12/24 00:52:26;;;;;;;3.20;1.20;;;15.50;61.80;;;;;;4992148;28;20202;-57
2022/12/24 00:54:52;;;;;;;3.70;1.87;;;15.60;61.30;;;;;;4991730;28;20436;-57
2022/12/24 00:57:18;;;;;;;7.13;1.60;;;15.70;61.10;;;;;;4992134;28;20197;-57
2022/12/24 00:59:43;;;;;;;3.53;1.50;;;15.50;61.30;;;;;;4992186;28;20200;-57
2022/12/24 01:02:09;;;;;;;2.80;1.47;;;15.30;61.40;;;;;;4992304;28;20269;-58
2022/12/24 01:07:19;;;;;;;7.97;2.00;;;15.50;61.40;;;;;;4992189;28;20205;-57
2022/12/24 01:09:44;;;;;;;4.40;1.40;;;15.80;61.30;;;;;;4989129;28;20442;-57
2022/12/24 01:12:10;;;;;;;4.53;1.80;;;15.90;60.70;;;;;;4992131;28;20229;-58
2022/12/24 01:14:36;;;;;;;4.23;1.70;;;16.00;60.20;;;;;;4991658;28;20585;-58
2022/12/24 01:17:03;;;;;;;3.03;1.57;;;16.20;59.80;;;;;;4991712;28;20683;-57
2022/12/24 01:19:28;;;;;;;3.93;1.40;;;16.20;59.50;;;;;;4991886;28;20433;-57
2022/12/24 01:21:54;;;;;;;4.70;2.63;;;16.10;59.50;;;;;;4991768;28;20426;-57
2022/12/24 01:24:20;;;;;;;4.30;1.60;;;16.10;59.80;;;;;;4991467;28;20273;-57
2022/12/24 01:26:45;;;;;;;5.17;2.10;;;15.70;60.80;;;;;;4992148;28;20191;-57
2022/12/24 01:29:11;;;;;;;4.00;1.40;;;15.90;61.40;;;;;;4991891;28;20186;-57
2022/12/24 01:31:36;;;;;;;4.73;1.60;;;15.90;61.80;;;;;;4991721;28;20225;-57
2022/12/24 01:34:02;;;;;;;3.93;1.40;;;16.00;62.10;;;;;;4991059;28;20302;-57
2022/12/24 01:36:28;;;;;;;4.80;2.07;;;16.00;62.40;;;;;;4990639;28;20324;-57
2022/12/24 01:38:53;;;;;;;3.50;1.73;;;16.20;62.70;;;;;;4991723;28;20429;-57
2022/12/24 01:44:26;;;;;;;7.70;2.07;;;16.30;62.50;;;;;;4991369;28;20622;-57
2022/12/24 01:47:11;;;;;;;4.63;1.70;;;16.50;62.90;;;;;;4991677;28;20420;-58
2022/12/24 01:49:41;;;;;;;10.17;2.17;;;16.60;63.50;;;;;;4991826;28;20838;-57
2022/12/24 01:52:13;;;;;;;3.43;1.77;;;16.40;64.10;;;;;;4991635;28;20422;-57
2022/12/24 01:55:02;;;;;;;6.23;1.47;;;15.80;65.60;;;;;;4991436;28;20925;-57
2022/12/24 01:57:44;;;;;;;7.40;1.90;;;15.80;66.40;;;;;;4991532;28;20541;-58
2022/12/24 02:00:12;;;;;;;5.07;1.60;;;15.60;67.10;;;;;;4991486;28;20937;-57
2022/12/24 02:02:40;;;;;;;5.50;2.30;;;15.10;69.10;;;;;;4992094;28;20489;-57
2022/12/24 02:05:28;;;;;;;9.13;2.40;;;14.90;71.60;;;;;;4995010;28;20456;-58
2022/12/24 02:07:55;;;;;;;9.80;2.47;;;15.20;70.80;;;;;;4985658;28;20438;-57
2022/12/24 02:10:21;;;;;;;6.07;1.87;;;15.10;70.80;;;;;;4995082;28;20441;-57
2022/12/24 02:12:48;;;;;;;6.53;2.10;;;15.20;71.10;;;;;;4994602;28;20430;-57
2022/12/24 02:15:16;;;;;;;5.43;2.27;;;15.20;71.10;;;;;;4994751;28;20438;-58
2022/12/24 02:18:10;;;;;;;8.90;1.90;;;15.10;72.00;;;;;;4994723;28;20457;-57
2022/12/24 02:20:57;;;;;;;9.57;2.23;;;15.00;72.20;;;;;;4984448;28;20610;-57
2022/12/24 02:23:31;;;;;;;5.27;1.80;;;14.90;73.20;;;;;;4994180;28;20844;-57
2022/12/24 02:26:17;;;;;;;7.70;1.90;;;14.80;73.40;;;;;;4994858;28;20452;-57
2022/12/24 02:29:11;;;;;;;8.67;2.07;;;14.60;73.90;;;;;;4993207;28;20437;-57
2022/12/24 02:31:43;;;;;;;4.40;1.40;;;14.70;73.30;;;;;;4994566;28;20521;-58
2022/12/24 02:34:27;;;;;;;5.53;1.67;;;14.90;73.20;;;;;;4994292;28;20944;-57
2022/12/24 02:37:02;;;;;;;10.57;2.43;;;14.90;72.70;;;;;;4994621;28;20439;-57
2022/12/24 02:39:49;;;;;;;5.70;1.90;;;15.10;72.50;;;;;;4994430;28;20430;-57
2022/12/24 02:42:20;;;;;;;7.57;2.10;;;14.90;72.30;;;;;;4994292;28;20481;-57
2022/12/24 02:45:00;;;;;;;12.90;2.57;;;15.00;72.40;;;;;;4994090;28;20909;-57
2022/12/24 02:47:27;;;;;;;7.03;1.83;;;15.10;73.10;;;;;;4994527;28;20466;-57
2022/12/24 02:49:53;;;;;;;4.70;2.23;;;15.10;71.90;;;;;;4994372;28;20414;-57
2022/12/24 02:52:36;;;;;;;5.37;1.60;;;15.10;71.50;;;;;;4994313;28;20485;-57
2022/12/24 02:55:14;;;;;;;5.10;1.60;;;15.10;71.30;;;;;;4992698;28;20464;-57
2022/12/24 02:57:49;;;;;;;4.40;2.47;;;15.10;70.90;;;;;;4994356;28;20437;-57
2022/12/24 03:00:17;;;;;;;6.93;2.20;;;15.00;70.80;;;;;;4994323;28;20516;-57
2022/12/24 03:03:17;;;;;;;8.13;2.23;;;15.00;71.10;;;;;;4993889;28;20481;-57
2022/12/24 03:05:50;;;;;;;2.90;1.50;;;15.20;70.30;;;;;;4993980;28;20434;-57
2022/12/24 03:08:38;;;;;;;8.80;1.90;;;15.40;70.20;;;;;;4993881;28;20871;-57
2022/12/24 03:11:14;;;;;;;6.47;1.70;;;15.40;68.90;;;;;;4993903;28;20493;-57
2022/12/24 03:13:42;;;;;;;8.00;2.47;;;15.50;68.80;;;;;;4992492;28;20492;-57
2022/12/24 03:16:14;;;;;;;6.00;2.10;;;15.60;68.30;;;;;;4993826;28;20422;-57
2022/12/24 03:18:44;;;;;;;4.77;2.13;;;15.70;67.90;;;;;;4993969;28;20430;-57
2022/12/24 03:21:19;;;;;;;5.80;2.10;;;15.70;67.80;;;;;;4992360;28;20432;-57
2022/12/24 03:23:45;;;;;;;8.13;2.00;;;15.80;67.40;;;;;;4993422;28;20481;-57
2022/12/24 03:26:12;;;;;;;8.80;2.00;;;15.80;67.10;;;;;;4993831;28;20500;-57
2022/12/24 03:28:39;;;;;;;3.73;2.07;;;15.90;66.90;;;;;;4993909;28;20186;-57
2022/12/24 03:31:07;;;;;;;7.40;2.00;;;16.00;66.80;;;;;;4993557;28;20437;-57
2022/12/24 03:33:33;;;;;;;6.53;2.40;;;16.00;66.50;;;;;;4993149;28;20426;-57
2022/12/24 03:35:59;;;;;;;9.47;2.47;;;16.00;66.50;;;;;;4993294;28;20440;-57
2022/12/24 03:38:25;;;;;;;4.50;1.90;;;16.10;66.60;;;;;;4993218;28;20433;-57
2022/12/24 03:40:51;;;;;;;5.90;2.60;;;16.00;66.50;;;;;;4993318;28;20445;-57
2022/12/24 03:43:16;;;;;;;3.80;1.93;;;15.90;66.60;;;;;;4992913;28;20723;-57
2022/12/24 03:45:42;;;;;;;5.83;2.17;;;15.90;66.90;;;;;;4993289;28;20218;-57
2022/12/24 03:48:07;;;;;;;4.50;1.63;;;15.90;66.90;;;;;;4991752;28;20606;-57
2022/12/24 03:50:33;;;;;;;5.20;2.23;;;16.00;66.80;;;;;;4993237;28;20195;-57
2022/12/24 03:52:59;;;;;;;7.33;2.10;;;16.00;66.80;;;;;;4992888;28;20260;-57
2022/12/24 03:55:24;;;;;;;3.17;1.53;;;16.00;66.70;;;;;;4993258;28;20194;-57
2022/12/24 03:57:50;;;;;;;10.20;2.13;;;16.00;66.60;;;;;;4993043;28;20673;-57
2022/12/24 04:00:16;;;;;;;4.77;1.83;;;15.90;66.40;;;;;;4992985;28;20194;-57
2022/12/24 04:02:42;;;;;;;5.17;1.87;;;15.90;66.30;;;;;;4992498;28;20229;-57
2022/12/24 04:05:13;;;;;;;9.90;1.90;;;15.90;66.20;;;;;;4993096;28;20430;-57
2022/12/24 04:07:38;;;;;;;11.03;2.47;;;15.90;65.80;;;;;;4992961;28;20259;-57
2022/12/24 04:10:04;;;;;;;7.60;2.10;;;15.90;65.40;;;;;;4992754;28;20434;-57
2022/12/24 04:12:30;;;;;;;5.20;1.90;;;15.90;65.20;;;;;;4992475;28;20194;-57
2022/12/24 04:14:55;;;;;;;8.03;4.13;;;15.70;64.80;;;;;;4991217;28;20423;-57
2022/12/24 04:17:21;;;;;;;4.97;1.93;;;15.80;64.90;;;;;;4992647;28;20230;-57
2022/12/24 04:19:47;;;;;;;11.60;2.17;;;15.80;64.90;;;;;;4992559;28;20716;-58
2022/12/24 04:22:12;;;;;;;5.17;2.07;;;15.80;64.70;;;;;;4992718;28;20202;-57
2022/12/24 04:24:38;;;;;;;7.10;4.03;;;15.80;64.60;;;;;;4991949;28;20606;-57
2022/12/24 04:27:03;;;;;;;4.40;1.60;;;15.70;64.60;;;;;;4992860;28;20245;-57
2022/12/24 04:29:29;;;;;;;5.67;1.80;;;15.70;64.80;;;;;;4992539;28;20190;-57
2022/12/24 04:31:54;;;;;;;6.93;2.20;;;15.80;64.60;;;;;;4992654;28;20198;-57
2022/12/24 04:34:20;;;;;;;8.23;1.80;;;15.90;64.60;;;;;;4991923;28;20222;-57
2022/12/24 04:36:45;;;;;;;5.20;1.83;;;16.00;64.80;;;;;;4992352;28;20198;-57
2022/12/24 04:39:11;;;;;;;8.67;2.67;;;16.00;65.10;;;;;;4992447;28;20586;-57
2022/12/24 04:41:37;;;;;;;5.57;2.20;;;16.00;65.30;;;;;;4990922;28;20233;-57
2022/12/24 04:44:02;;;;;;;4.07;1.73;;;16.00;65.50;;;;;;4991922;28;20686;-57
2022/12/24 04:46:29;;;;;;;5.03;2.13;;;16.00;65.70;;;;;;4992199;28;20195;-57
2022/12/24 04:48:55;;;;;;;5.60;2.33;;;16.00;65.70;;;;;;4992113;28;20213;-57
2022/12/24 04:51:22;;;;;;;4.77;2.70;;;15.90;65.90;;;;;;4992183;28;20460;-57
2022/12/24 04:53:48;;;;;;;10.90;2.63;;;15.90;66.40;;;;;;4991667;28;20460;-57
2022/12/24 04:56:32;;;;;;;5.50;2.40;;;15.90;66.90;;;;;;4992099;28;20788;-57
2022/12/24 04:58:59;;;;;;;6.83;2.17;;;15.90;67.30;;;;;;4991848;28;20438;-57
2022/12/24 05:01:27;;;;;;;4.23;2.23;;;15.90;67.30;;;;;;4992196;28;20925;-57
2022/12/24 05:03:53;;;;;;;10.30;2.33;;;15.90;67.40;;;;;;4991768;28;20485;-57
2022/12/24 05:06:25;;;;;;;3.20;1.87;;;15.90;67.50;;;;;;4990613;28;20508;-57
2022/12/24 05:08:54;;;;;;;8.20;2.20;;;15.90;67.60;;;;;;4991948;28;20929;-57
2022/12/24 05:11:20;;;;;;;5.87;1.97;;;15.80;67.30;;;;;;4992032;28;20430;-57
2022/12/24 05:13:46;;;;;;;5.20;1.73;;;15.80;67.20;;;;;;4991647;28;20936;-57
2022/12/24 05:16:13;;;;;;;9.07;2.73;;;15.80;67.40;;;;;;4991839;28;20289;-58
2022/12/24 05:18:39;;;;;;;7.87;2.53;;;15.80;67.60;;;;;;4992273;28;20526;-57
2022/12/24 05:21:14;;;;;;;3.37;2.17;;;15.80;68.00;;;;;;4992027;28;20536;-57
2022/12/24 05:26:33;;;;;;;6.10;2.10;;;15.80;67.80;;;;;;4991829;28;20809;-57
2022/12/24 05:29:00;;;;;;;6.60;2.47;;;15.70;67.70;;;;;;4991810;28;20408;-57
2022/12/24 05:31:28;;;;;;;8.67;2.20;;;15.70;67.70;;;;;;4991751;28;20508;-57
2022/12/24 05:33:54;;;;;;;3.00;1.60;;;15.60;66.40;;;;;;4989844;28;20776;-57
2022/12/24 05:36:21;;;;;;;5.37;2.03;;;15.40;65.80;;;;;;4992317;28;20437;-57
2022/12/24 05:38:47;;;;;;;5.50;2.50;;;15.40;65.10;;;;;;4995703;28;20198;-57
2022/12/24 05:41:13;;;;;;;5.17;1.70;;;15.30;64.90;;;;;;4995385;28;20436;-57
2022/12/24 05:43:38;;;;;;;8.33;2.37;;;15.30;65.60;;;;;;4995276;28;20329;-57
2022/12/24 05:46:07;;;;;;;4.43;1.80;;;15.30;65.10;;;;;;4995446;28;20854;-57
2022/12/24 05:48:32;;;;;;;5.77;2.10;;;15.40;64.60;;;;;;4995548;28;20249;-57
2022/12/24 05:50:58;;;;;;;3.60;1.60;;;15.40;65.00;;;;;;4995385;28;20413;-57
2022/12/24 05:53:24;;;;;;;6.67;2.27;;;15.30;63.70;;;;;;4995193;28;20277;-57
2022/12/24 05:55:50;;;;;;;8.23;2.20;;;15.00;64.10;;;;;;4995464;28;20691;-58
2022/12/24 05:58:15;;;;;;;6.73;2.20;;;14.70;63.90;;;;;;4995328;28;20433;-57
2022/12/24 06:00:41;;;;;;;9.13;1.90;;;14.70;64.50;;;;;;4993707;28;20746;-57
2022/12/24 06:03:07;;;;;;;5.90;1.80;;;14.70;64.90;;;;;;4994911;28;20234;-57
2022/12/24 06:05:32;;;;;;;9.17;2.07;;;14.70;65.10;;;;;;4995120;28;20198;-57
2022/12/24 06:07:58;;;;;;;6.73;1.80;;;14.50;64.80;;;;;;4995155;28;20677;-57
2022/12/24 06:10:24;;;;;;;3.90;1.87;;;14.40;65.40;;;;;;4995219;28;20194;-57
2022/12/24 06:12:49;;;;;;;6.63;2.60;;;14.30;65.40;;;;;;4994719;28;20226;-57
2022/12/24 06:15:15;;;;;;;7.20;2.10;;;14.30;65.90;;;;;;4995049;28;20194;-57
2022/12/24 06:17:40;;;;;;;8.30;2.30;;;14.30;65.40;;;;;;4994456;28;20681;-57
2022/12/24 06:20:07;;;;;;;5.63;2.17;;;14.50;64.80;;;;;;5006928;28;20202;-57
2022/12/24 06:22:32;;;;;;;9.90;2.53;;;14.40;64.40;;;;;;4993221;28;20222;-57
2022/12/24 06:24:58;;;;;;;6.30;1.93;;;14.30;65.90;;;;;;4986506;28;20441;-57
2022/12/24 06:27:24;;;;;;;5.73;2.27;;;14.40;65.20;;;;;;4992241;28;20195;-57
2022/12/24 06:29:49;;;;;;;7.80;2.17;;;14.50;65.00;;;;;;4993599;28;20429;-57
2022/12/24 06:32:15;;;;;;;8.10;2.47;;;14.50;65.00;;;;;;4993288;28;20559;-57
2022/12/24 06:34:41;;;;;;;4.53;2.07;;;14.40;64.80;;;;;;4993680;28;20195;-57
2022/12/24 06:37:06;;;;;;;6.20;2.33;;;14.60;64.60;;;;;;4993422;28;20673;-57
2022/12/24 06:39:32;;;;;;;8.37;2.87;;;14.60;64.40;;;;;;4993493;28;20206;-57
2022/12/24 06:41:57;;;;;;;3.90;2.20;;;14.70;64.20;;;;;;4993512;28;20711;-57
2022/12/24 06:44:23;;;;;;;8.43;2.40;;;14.80;63.70;;;;;;4993086;28;20257;-57
2022/12/24 06:46:48;;;;;;;4.43;1.63;;;14.70;63.60;;;;;;4993434;28;20571;-57
2022/12/24 06:49:14;;;;;;;3.07;1.97;;;14.50;64.70;;;;;;4993273;28;20224;-57
2022/12/24 06:51:40;;;;;;;3.83;2.07;;;14.40;65.10;;;;;;4993461;28;20194;-57
2022/12/24 06:54:06;;;;;;;5.90;2.47;;;14.60;65.10;;;;;;4991328;28;20543;-58
2022/12/24 06:56:31;;;;;;;2.80;1.93;;;14.50;65.20;;;;;;4993261;28;20916;-57
2022/12/24 06:58:57;;;;;;;7.57;2.17;;;14.60;64.70;;;;;;4993096;28;20565;-57
2022/12/24 07:01:23;;;;;;;8.40;1.90;;;14.60;64.60;;;;;;4993081;28;20190;-57
2022/12/24 07:03:49;;;;;;;7.50;2.60;;;14.60;64.70;;;;;;4992424;28;20230;-57
2022/12/24 07:06:16;;;;;;;7.63;3.17;;;14.60;64.90;;;;;;4992957;28;20438;-57
2022/12/24 07:08:42;;;;;;;7.07;3.83;;;14.60;65.10;;;;;;4992886;28;20433;-57
2022/12/24 07:11:07;;;;;;;4.83;2.50;;;14.80;64.60;;;;;;4993025;28;20766;-57
2022/12/24 07:13:33;;;;;;;8.07;2.80;;;14.90;64.10;;;;;;4992402;28;20240;-57
2022/12/24 07:16:01;;;;;;;4.33;2.00;;;14.90;64.10;;;;;;4955467;28;1085851;-58
2022/12/24 07:18:27;;;;;;;10.77;3.00;;;15.10;63.80;;;;;;4998190;28;20283;-57
2022/12/24 07:20:52;;;;;;;6.87;2.30;;;15.00;63.90;;;;;;5000969;28;20452;-57
2022/12/24 07:23:18;;;;;;;5.20;2.13;;;15.00;63.70;;;;;;4992966;28;20486;-57
2022/12/24 07:25:43;;;;;;;6.93;1.73;;;14.80;64.10;;;;;;4986880;28;20198;-57
2022/12/24 07:28:09;;;;;;;6.70;2.10;;;14.90;64.20;;;;;;4993791;28;20190;-57
2022/12/24 07:30:35;;;;;;;8.53;2.20;;;15.00;64.10;;;;;;4993678;28;20621;-57
2022/12/24 07:33:00;;;;;;;8.20;1.90;;;14.90;63.70;;;;;;4993218;28;20190;-57
2022/12/24 07:35:26;;;;;;;6.40;2.23;;;14.90;63.80;;;;;;4993707;28;20198;-57
2022/12/24 07:37:52;;;;;;;5.33;1.90;;;14.90;63.70;;;;;;4993631;28;20689;-57
2022/12/24 07:40:17;;;;;;;4.57;2.20;;;14.90;63.80;;;;;;4993723;28;20190;-57
2022/12/24 07:42:43;;;;;;;5.30;2.00;;;14.90;63.80;;;;;;4993143;28;20588;-57
2022/12/24 07:45:09;;;;;;;7.63;2.10;;;15.00;63.30;;;;;;4992635;28;20464;-57
2022/12/24 07:47:35;;;;;;;6.63;1.83;;;14.90;64.30;;;;;;4992727;28;20194;-57
2022/12/24 07:50:01;;;;;;;3.67;1.73;;;15.00;63.30;;;;;;4993266;28;20500;-57
2022/12/24 07:52:26;;;;;;;7.80;2.27;;;15.10;62.90;;;;;;4992844;28;20464;-57
2022/12/24 07:54:52;;;;;;;6.80;2.70;;;15.20;62.30;;;;;;4993227;28;20457;-57
2022/12/24 07:57:18;;;;;;;10.17;2.37;;;15.30;61.70;;;;;;4993119;28;20199;-57
2022/12/24 07:59:43;;;;;;;11.07;2.60;;;15.40;61.40;;;;;;4992597;28;20581;-57
2022/12/24 08:02:10;;;;;;;12.50;2.20;;;15.50;61.30;;;;;;4992838;28;20195;-57
2022/12/24 08:04:36;;;;;;;4.63;1.80;;;15.40;61.10;;;;;;4993075;28;20278;-57
2022/12/24 08:07:06;;;;;;;4.37;1.87;;;15.30;60.80;;;;;;4993004;28;20521;-57
2022/12/24 08:09:35;;;;;;;7.23;3.47;;;15.20;61.10;;;;;;4992936;28;20194;-57
2022/12/24 08:12:01;;;;;;;3.87;2.90;;;15.20;61.20;;;;;;4990728;28;20493;-57
2022/12/24 08:14:31;;;;;;;8.00;3.77;;;15.30;61.10;;;;;;4993109;28;20434;-57
2022/12/24 08:16:57;;;;;;;6.63;2.13;;;15.30;61.10;;;;;;4992694;28;20476;-57
2022/12/24 08:19:23;;;;;;;5.97;2.17;;;15.20;61.40;;;;;;5004957;28;20425;-57
2022/12/24 08:21:49;;;;;;;6.80;2.60;;;15.30;61.60;;;;;;4993661;28;20249;-57
2022/12/24 08:24:14;;;;;;;6.33;2.80;;;15.20;61.50;;;;;;4985104;28;20486;-57
2022/12/24 08:26:40;;;;;;;4.93;2.50;;;15.30;61.40;;;;;;4992844;28;20194;-57
2022/12/24 08:29:06;;;;;;;4.43;2.17;;;15.50;61.30;;;;;;4992626;28;20301;-57
2022/12/24 08:31:35;;;;;;;4.83;2.07;;;15.50;61.20;;;;;;4992624;28;20541;-57
2022/12/24 08:34:02;;;;;;;6.73;2.13;;;15.50;61.00;;;;;;4991987;28;20191;-57
2022/12/24 08:36:27;;;;;;;3.87;2.07;;;15.30;61.20;;;;;;4992364;28;20426;-57
2022/12/24 08:38:53;;;;;;;7.07;2.60;;;15.30;60.80;;;;;;4990897;28;20849;-57
2022/12/24 08:41:19;;;;;;;4.10;2.03;;;15.40;60.80;;;;;;4992266;28;20191;-58
2022/12/24 08:43:44;;;;;;;11.47;2.60;;;15.50;60.50;;;;;;4991863;28;20222;-57
2022/12/24 08:46:10;;;;;;;5.20;2.00;;;15.40;60.30;;;;;;4992400;28;20228;-57
2022/12/24 08:48:36;;;;;;;5.90;2.80;;;15.50;60.60;;;;;;4992312;28;20187;-57
2022/12/24 08:51:09;;;;;;;9.50;2.10;;;15.40;60.40;;;;;;4992150;28;20260;-57
2022/12/24 08:53:35;;;;;;;5.10;2.30;;;15.10;61.10;;;;;;4991786;28;20894;-57
2022/12/24 08:56:02;;;;;;;7.83;2.20;;;15.20;61.30;;;;;;4992131;28;20855;-57
2022/12/24 08:58:29;;;;;;;7.53;2.13;;;15.20;61.10;;;;;;4992278;28;20186;-57
2022/12/24 09:00:54;;;;;;;10.30;2.87;;;15.40;60.70;;;;;;4992130;28;20438;-57
2022/12/24 09:03:20;;;;;;;4.10;2.10;;;15.40;60.30;;;;;;4991518;28;20469;-57
2022/12/24 09:05:46;;;;;;;6.20;3.00;;;15.40;60.60;;;;;;4990462;28;20205;-57
2022/12/24 09:08:12;;;;;;;6.70;2.63;;;15.40;60.30;;;;;;4991941;28;20203;-57
2022/12/24 09:10:38;;;;;;;6.13;2.30;;;15.40;60.00;;;;;;4991657;28;20433;-57
2022/12/24 09:13:03;;;;;;;8.80;3.17;;;15.50;60.20;;;;;;4991186;28;20647;-57
2022/12/24 09:15:29;;;;;;;4.73;2.70;;;15.50;60.00;;;;;;4991867;28;20186;-57
2022/12/24 09:17:54;;;;;;;4.73;2.30;;;15.60;60.00;;;;;;4992084;28;20239;-57
2022/12/24 09:20:20;;;;;;;5.37;2.40;;;15.70;60.30;;;;;;4991917;28;20277;-58
2022/12/24 09:22:45;;;;;;;10.27;3.60;;;15.70;60.50;;;;;;4991288;28;20218;-57
2022/12/24 09:25:11;;;;;;;8.47;5.23;;;15.70;59.90;;;;;;4984814;28;20560;-57
2022/12/24 09:27:37;;;;;;;12.67;8.00;;;15.60;59.80;;;;;;4992131;28;20201;-57
2022/12/24 09:30:04;;;;;;;18.33;11.70;;;15.70;59.80;;;;;;4991921;28;20680;-57
2022/12/24 09:32:30;;;;;;;22.63;12.17;;;15.70;59.60;;;;;;4989800;28;20198;-58
2022/12/24 09:34:56;;;;;;;22.10;12.13;;;15.80;59.50;;;;;;4991883;28;20488;-58
2022/12/24 09:37:21;;;;;;;14.87;8.40;;;15.80;59.60;;;;;;4991679;28;20218;-58
2022/12/24 09:39:47;;;;;;;14.13;8.30;;;15.80;59.30;;;;;;4991828;28;20668;-58
2022/12/24 09:42:18;;;;;;;18.27;9.80;;;15.70;59.00;;;;;;4991409;28;20198;-57
2022/12/24 09:44:54;;;;;;;17.87;8.83;;;15.60;59.80;;;;;;4991772;28;20250;-58
2022/12/24 09:47:49;;;;;;;11.53;3.47;;;15.60;59.40;;;;;;4991689;28;20944;-57
2022/12/24 09:50:23;;;;;;;8.53;2.37;;;15.50;59.40;;;;;;4990458;28;20452;-58
2022/12/24 09:52:50;;;;;;;7.70;2.57;;;15.50;59.30;;;;;;4991190;28;20430;-58
2022/12/24 09:55:28;;;;;;;7.83;2.40;;;15.80;59.50;;;;;;4991597;28;20432;-58
2022/12/24 09:57:58;;;;;;;8.60;2.70;;;16.20;58.70;;;;;;4990075;28;20438;-58
2022/12/24 10:00:32;;;;;;;7.33;2.10;;;16.50;58.10;;;;;;4991882;28;20584;-58
2022/12/24 10:02:57;;;;;;;7.27;2.60;;;16.80;58.00;;;;;;4991200;28;20810;-58
2022/12/24 10:05:38;;;;;;;7.47;2.47;;;17.20;56.50;;;;;;4991439;28;20436;-58
2022/12/24 10:08:21;;;;;;;6.80;3.27;;;17.30;55.40;;;;;;4991694;28;20293;-58
2022/12/24 10:10:53;;;;;;;8.17;2.60;;;17.40;55.10;;;;;;4991630;28;20437;-58
2022/12/24 10:13:21;;;;;;;11.23;4.43;;;17.60;54.00;;;;;;4991107;28;20773;-58
2022/12/24 10:16:07;;;;;;;8.67;2.20;;;17.70;54.40;;;;;;4991604;28;20952;-58
2022/12/24 10:18:50;;;;;;;7.77;2.73;;;17.60;54.10;;;;;;4996628;28;20452;-58
2022/12/24 10:21:43;;;;;;;9.20;2.90;;;17.70;53.50;;;;;;4996699;28;20429;-58
2022/12/24 10:24:17;;;;;;;8.90;2.50;;;17.70;53.80;;;;;;4986776;28;20474;-58
2022/12/24 10:26:51;;;;;;;5.13;1.97;;;17.70;54.10;;;;;;4993778;28;20417;-59
2022/12/24 10:29:22;;;;;;;4.60;2.47;;;17.60;53.30;;;;;;4994587;28;20924;-58
2022/12/24 10:32:08;;;;;;;3.70;2.23;;;17.80;54.10;;;;;;4994340;28;20508;-58
2022/12/24 10:34:43;;;;;;;8.10;2.23;;;17.80;53.40;;;;;;4994688;28;20425;-58
2022/12/24 10:37:23;;;;;;;6.70;2.07;;;17.60;52.70;;;;;;4994833;28;20901;-58
2022/12/24 10:39:49;;;;;;;10.83;3.70;;;17.40;53.50;;;;;;4994731;28;20421;-58
2022/12/24 10:42:16;;;;;;;7.97;2.70;;;17.50;53.90;;;;;;4993991;28;20422;-58
2022/12/24 10:44:46;;;;;;;9.57;4.27;;;17.60;53.60;;;;;;4994564;28;20437;-58
2022/12/24 10:47:13;;;;;;;6.43;4.10;;;17.50;53.50;;;;;;4994490;28;20418;-58
2022/12/24 10:49:59;;;;;;;14.83;2.83;;;17.40;54.00;;;;;;4994463;28;20850;-58
2022/12/24 10:52:29;;;;;;;5.60;2.00;;;17.40;53.80;;;;;;4992410;28;20480;-58
2022/12/24 10:55:23;;;;;;;5.17;2.20;;;17.50;54.40;;;;;;4994327;28;20426;-58
2022/12/24 10:58:04;;;;;;;6.13;2.60;;;17.40;53.90;;;;;;4994119;28;20560;-58
2022/12/24 11:00:30;;;;;;;10.30;3.30;;;17.50;54.20;;;;;;4994027;28;20429;-58
2022/12/24 11:03:27;;;;;;;9.70;2.83;;;17.40;54.00;;;;;;4993784;28;20489;-58
2022/12/24 11:06:14;;;;;;;8.27;3.40;;;17.00;54.60;;;;;;4994368;28;20430;-57
2022/12/24 11:08:43;;;;;;;9.03;2.43;;;17.20;54.70;;;;;;4994072;28;20461;-58
2022/12/24 11:11:19;;;;;;;10.83;2.60;;;17.00;54.30;;;;;;4994190;28;20901;-58
2022/12/24 11:13:57;;;;;;;5.20;2.90;;;16.80;54.60;;;;;;4993522;28;20430;-57
2022/12/24 11:16:29;;;;;;;5.07;2.20;;;16.70;55.10;;;;;;4993822;28;20456;-58
2022/12/24 11:19:14;;;;;;;4.97;2.40;;;16.70;55.60;;;;;;5000786;28;20441;-58
2022/12/24 11:21:40;;;;;;;8.23;2.87;;;16.70;55.80;;;;;;4995385;28;20776;-58
2022/12/24 11:24:11;;;;;;;6.10;2.10;;;16.80;55.50;;;;;;4987299;28;20493;-59
2022/12/24 11:26:39;;;;;;;9.90;2.63;;;16.80;55.40;;;;;;4992556;28;20441;-57
2022/12/24 11:29:10;;;;;;;4.90;2.30;;;16.70;56.00;;;;;;4993808;28;21221;-58
2022/12/24 11:31:36;;;;;;;6.83;3.03;;;16.80;56.00;;;;;;4993425;28;20640;-58
2022/12/24 11:34:16;;;;;;;9.60;2.43;;;16.90;55.90;;;;;;4992560;28;20955;-58
2022/12/24 11:36:42;;;;;;;5.30;2.37;;;16.90;55.90;;;;;;4993600;28;20476;-58
2022/12/24 11:39:21;;;;;;;6.33;2.57;;;17.00;55.70;;;;;;4993702;28;20433;-58
2022/12/24 11:41:49;;;;;;;10.70;3.80;;;17.10;55.50;;;;;;4992918;28;20404;-58
2022/12/24 11:44:24;;;;;;;7.40;3.03;;;17.00;55.50;;;;;;4991719;28;20993;-58
2022/12/24 11:46:55;;;;;;;8.23;2.43;;;17.00;55.90;;;;;;4993398;28;20444;-59
2022/12/24 11:49:20;;;;;;;8.00;2.43;;;16.90;55.90;;;;;;4993438;28;20513;-59
2022/12/24 11:52:16;;;;;;;8.13;3.43;;;16.80;55.50;;;;;;4992854;28;20433;-58
2022/12/24 11:55:13;;;;;;;10.23;3.23;;;16.80;55.80;;;;;;4993501;28;20198;-58
2022/12/24 11:57:59;;;;;;;7.63;2.60;;;16.90;56.10;;;;;;4993223;28;20484;-58
2022/12/24 12:00:25;;;;;;;6.77;2.80;;;16.90;56.10;;;;;;4992855;28;20440;-58
2022/12/24 12:02:55;;;;;;;5.40;2.67;;;17.10;56.00;;;;;;4992468;28;20524;-58
2022/12/24 12:05:25;;;;;;;7.10;3.33;;;17.10;55.60;;;;;;4993041;28;20461;-58
2022/12/24 12:07:56;;;;;;;8.87;3.50;;;17.00;55.40;;;;;;4993163;28;20418;-58
2022/12/24 12:10:27;;;;;;;10.03;2.90;;;17.10;55.80;;;;;;4991576;28;20461;-58
2022/12/24 12:13:01;;;;;;;9.00;2.57;;;17.20;56.00;;;;;;4992528;28;20977;-58
2022/12/24 12:15:38;;;;;;;10.67;3.33;;;17.30;55.70;;;;;;4992678;28;20524;-58
2022/12/24 12:18:14;;;;;;;8.37;2.50;;;17.40;55.60;;;;;;4994116;28;20466;-58
2022/12/24 12:20:44;;;;;;;7.40;2.53;;;17.50;55.90;;;;;;5002959;28;20508;-58
2022/12/24 12:23:13;;;;;;;12.40;3.40;;;17.50;56.10;;;;;;4992178;28;20485;-58
2022/12/24 12:25:56;;;;;;;5.23;2.50;;;17.50;56.20;;;;;;4985869;28;20791;-58
2022/12/24 12:28:27;;;;;;;6.93;2.90;;;17.50;56.40;;;;;;4992749;28;20433;-58
2022/12/24 12:31:09;;;;;;;8.07;3.87;;;17.60;56.80;;;;;;4992645;28;20849;-58
2022/12/24 12:33:44;;;;;;;8.13;2.80;;;17.60;56.90;;;;;;4992269;28;20430;-58
2022/12/24 12:36:11;;;;;;;6.57;2.73;;;17.60;57.00;;;;;;4992553;28;20429;-58
2022/12/24 12:38:37;;;;;;;6.33;3.20;;;17.60;57.10;;;;;;4990919;28;20442;-58
2022/12/24 12:41:37;;;;;;;9.00;3.60;;;17.60;57.20;;;;;;4992281;28;20434;-58
2022/12/24 12:44:25;;;;;;;8.60;3.90;;;17.60;57.50;;;;;;4992239;28;20521;-58
2022/12/24 12:47:21;;;;;;;9.37;3.80;;;17.60;57.70;;;;;;4992000;28;20492;-58
2022/12/24 12:50:00;;;;;;;10.03;3.00;;;17.50;57.70;;;;;;4992377;28;20437;-58
2022/12/24 12:52:31;;;;;;;6.70;2.83;;;17.40;58.00;;;;;;4991821;28;20437;-58
2022/12/24 12:55:06;;;;;;;7.03;3.27;;;17.40;58.40;;;;;;4992557;28;20496;-58
2022/12/24 12:57:36;;;;;;;9.60;2.90;;;17.40;58.70;;;;;;4992090;28;20717;-58
2022/12/24 13:00:10;;;;;;;9.97;3.30;;;17.40;58.90;;;;;;4992142;28;20800;-58
2022/12/24 13:03:02;;;;;;;12.90;3.57;;;17.40;59.20;;;;;;4991647;28;20473;-58
2022/12/24 13:05:46;;;;;;;7.90;2.80;;;17.40;59.60;;;;;;4990914;28;20422;-58
2022/12/24 13:08:44;;;;;;;11.53;3.20;;;17.40;59.70;;;;;;4992005;28;20438;-58